createdAt,value
2019-05-02T00:02:47.934Z,33.53
2019-05-02T00:08:12.366Z,31.53
2019-05-02T00:13:36.739Z,34.17
2019-05-02T00:19:01.168Z,29.60
2019-05-02T00:24:25.681Z,28.70
2019-05-02T00:29:53.928Z,28.73
2019-05-02T00:35:16.027Z,29.63
2019-05-02T00:40:40.841Z,30.30
2019-05-02T00:46:05.479Z,34.63
2019-05-02T00:51:30.014Z,28.30
2019-05-02T00:56:54.963Z,26.97
2019-05-02T01:02:35.901Z,31.50
2019-05-02T01:08:01.010Z,24.87
2019-05-02T01:13:24.671Z,29.73
2019-05-02T01:18:49.999Z,26.33
2019-05-02T01:24:14.466Z,26.70
2019-05-02T01:29:46.183Z,25.87
2019-05-02T01:35:15.093Z,25.03
2019-05-02T01:40:39.529Z,30.73
2019-05-02T01:46:03.217Z,28.60
2019-05-02T01:51:27.661Z,34.00
2019-05-02T01:56:51.300Z,30.20
2019-05-02T02:02:16.044Z,26.83
2019-05-02T02:07:40.462Z,27.17
2019-05-02T02:13:05.431Z,30.00
2019-05-02T02:18:32.000Z,32.17
2019-05-02T02:24:04.241Z,28.27
2019-05-02T02:29:27.982Z,28.10
2019-05-02T02:34:52.774Z,26.40
2019-05-02T02:40:17.836Z,24.40
2019-05-02T02:46:00.317Z,25.83
2019-05-02T02:51:26.278Z,22.67
2019-05-02T02:56:50.102Z,23.33
2019-05-02T03:02:14.847Z,22.13
2019-05-02T03:07:39.336Z,30.10
2019-05-02T03:13:24.167Z,22.53
2019-05-02T03:18:47.813Z,19.00
2019-05-02T03:24:11.968Z,21.77
2019-05-02T03:29:43.824Z,23.87
2019-05-02T03:35:02.611Z,21.40
2019-05-02T03:40:32.252Z,18.23
2019-05-02T03:45:53.128Z,18.63
2019-05-02T03:51:21.298Z,20.87
2019-05-02T03:56:44.632Z,23.37
2019-05-02T04:02:14.244Z,18.57
2019-05-02T04:07:40.317Z,22.30
2019-05-02T04:13:00.636Z,19.27
2019-05-02T04:18:26.055Z,22.33
2019-05-02T04:23:51.273Z,18.37
2019-05-02T04:29:17.427Z,19.43
2019-05-02T04:34:42.074Z,18.20
2019-05-02T04:40:11.253Z,17.20
2019-05-02T04:45:47.286Z,20.23
2019-05-02T04:51:08.701Z,16.23
2019-05-02T04:56:24.379Z,18.10
2019-05-02T05:01:54.355Z,23.20
2019-05-02T05:07:14.837Z,18.57
2019-05-02T05:12:41.814Z,16.17
2019-05-02T05:18:12.693Z,18.53
2019-05-02T05:23:59.578Z,17.77
2019-05-02T05:29:23.138Z,20.93
2019-05-02T05:34:44.208Z,18.87
2019-05-02T05:40:08.485Z,21.07
2019-05-02T05:45:33.122Z,22.20
2019-05-02T05:50:58.024Z,20.73
2019-05-02T05:56:23.265Z,17.67
2019-05-02T06:01:51.424Z,20.43
2019-05-02T06:07:13.390Z,18.73
2019-05-02T06:12:37.463Z,18.40
2019-05-02T06:18:04.855Z,18.50
2019-05-02T06:23:31.083Z,17.73
2019-05-02T06:28:52.731Z,14.37
2019-05-02T06:34:16.619Z,13.50
2019-05-02T06:39:40.564Z,16.60
2019-05-02T06:45:05.026Z,15.97
2019-05-02T06:50:33.346Z,15.67
2019-05-02T06:55:55.529Z,16.40
2019-05-02T07:01:21.427Z,20.93
2019-05-02T07:06:57.195Z,15.50
2019-05-02T07:12:14.808Z,18.67
2019-05-02T07:17:41.680Z,18.70
2019-05-02T07:23:10.701Z,16.37
2019-05-02T07:28:31.951Z,18.00
2019-05-02T07:33:55.879Z,19.50
2019-05-02T07:39:19.702Z,17.50
2019-05-02T07:44:44.480Z,18.67
2019-05-02T07:50:10.828Z,17.43
2019-05-02T07:55:40.840Z,17.53
2019-05-02T08:01:02.109Z,23.33
2019-05-02T08:06:35.030Z,24.67
2019-05-02T08:11:52.704Z,19.80
2019-05-02T08:17:19.273Z,24.13
2019-05-02T08:22:48.822Z,21.73
2019-05-02T08:28:18.543Z,28.00
2019-05-02T08:33:42.966Z,24.70
2019-05-02T08:39:08.537Z,26.40
2019-05-02T08:44:32.460Z,28.37
2019-05-02T08:49:56.753Z,25.43
2019-05-02T08:55:21.438Z,25.33
2019-05-02T09:00:47.444Z,24.13
2019-05-02T09:06:12.226Z,27.67
2019-05-02T09:11:36.894Z,26.40
2019-05-02T09:17:08.609Z,29.40
2019-05-02T09:22:26.203Z,27.63
2019-05-02T09:27:52.471Z,25.07
2019-05-02T09:33:16.040Z,25.77
2019-05-02T09:38:39.868Z,22.63
2019-05-02T09:44:04.357Z,28.73
2019-05-02T09:49:28.275Z,25.10
2019-05-02T09:54:51.980Z,28.53
2019-05-02T10:00:39.171Z,31.50
2019-05-02T10:06:03.407Z,27.60
2019-05-02T10:11:28.965Z,31.50
2019-05-02T10:16:57.636Z,29.17
2019-05-02T10:22:19.683Z,36.83
2019-05-02T10:27:47.441Z,28.87
2019-05-02T10:33:09.291Z,29.67
2019-05-02T10:38:33.586Z,25.80
2019-05-02T10:43:59.521Z,29.50
2019-05-02T10:49:32.107Z,29.70
2019-05-02T10:54:56.718Z,31.40
2019-05-02T11:00:23.988Z,30.37
2019-05-02T11:05:52.795Z,25.77
2019-05-02T11:11:17.691Z,29.80
2019-05-02T11:16:52.465Z,27.37
2019-05-02T11:22:16.537Z,30.13
2019-05-02T11:27:41.882Z,30.43
2019-05-02T11:33:06.708Z,35.10
2019-05-02T11:38:31.267Z,33.47
2019-05-02T11:43:55.959Z,28.97
2019-05-02T11:49:22.594Z,28.30
2019-05-02T11:54:48.470Z,27.83
2019-05-02T12:00:12.415Z,30.30
2019-05-02T12:05:41.958Z,28.20
2019-05-02T12:11:08.413Z,24.37
2019-05-02T12:16:32.807Z,27.53
2019-05-02T12:21:57.309Z,26.07
2019-05-02T12:27:22.073Z,32.17
2019-05-02T12:32:46.962Z,25.27
2019-05-02T12:38:12.227Z,27.43
2019-05-02T12:43:36.671Z,25.97
2019-05-02T12:49:02.899Z,25.77
2019-05-02T12:54:26.840Z,26.37
2019-05-02T12:59:52.350Z,27.30
2019-05-02T13:05:17.003Z,26.97
2019-05-02T13:11:06.915Z,23.23
2019-05-02T13:16:33.518Z,23.53
2019-05-02T13:22:35.628Z,26.53
2019-05-02T13:28:02.008Z,24.03
2019-05-02T13:33:35.817Z,26.20
2019-05-02T13:39:01.755Z,22.60
2019-05-02T13:44:52.718Z,26.73
2019-05-02T13:50:17.818Z,21.73
2019-05-02T13:55:46.707Z,23.37
2019-05-02T14:01:11.736Z,24.70
2019-05-02T14:06:37.861Z,21.50
2019-05-02T14:12:06.699Z,20.13
2019-05-02T14:17:32.637Z,23.40
2019-05-02T14:22:56.960Z,23.20
2019-05-02T14:28:22.381Z,23.10
2019-05-02T14:34:05.299Z,23.40
2019-05-02T14:39:32.350Z,22.97
2019-05-02T14:45:08.944Z,25.50
2019-05-02T14:50:26.382Z,25.00
2019-05-02T14:55:48.580Z,26.07
2019-05-02T15:01:17.232Z,27.30
2019-05-02T15:06:45.447Z,27.17
2019-05-02T15:12:13.998Z,31.30
2019-05-02T15:17:36.273Z,27.10
2019-05-02T15:22:56.270Z,29.10
2019-05-02T15:28:19.956Z,27.90
2019-05-02T15:33:56.300Z,31.37
2019-05-02T15:44:46.842Z,28.00
2019-05-02T15:50:14.761Z,29.20
2019-05-02T15:55:39.344Z,27.13
2019-05-02T16:01:17.898Z,31.67
2019-05-02T16:06:41.984Z,29.97
2019-05-02T16:12:06.475Z,31.43
2019-05-02T16:17:30.881Z,26.60
2019-05-02T16:22:54.687Z,27.10
2019-05-02T16:28:20.506Z,29.23
2019-05-02T16:33:44.420Z,34.57
2019-05-02T16:39:10.081Z,35.97
2019-05-02T16:44:35.012Z,27.77
2019-05-02T16:50:02.256Z,31.03
2019-05-02T16:55:26.851Z,37.23
2019-05-02T17:00:52.662Z,32.60
2019-05-02T17:06:16.984Z,29.57
2019-05-02T17:11:43.270Z,31.30
2019-05-02T17:17:07.661Z,29.90
2019-05-02T17:22:32.876Z,32.47
2019-05-02T17:28:04.618Z,32.90
2019-05-02T17:33:23.042Z,31.83
2019-05-02T17:38:47.508Z,29.70
2019-05-02T17:44:12.962Z,31.37
2019-05-02T17:49:38.167Z,34.27
2019-05-02T17:55:03.206Z,33.67
2019-05-02T18:00:28.553Z,37.83
2019-05-02T18:05:52.980Z,44.57
2019-05-02T18:11:16.910Z,43.83
2019-05-02T18:16:41.994Z,47.03
2019-05-02T18:22:08.340Z,48.47
2019-05-02T18:27:31.791Z,45.40
2019-05-02T18:32:57.762Z,49.00
2019-05-02T18:38:22.406Z,44.80
2019-05-02T18:43:47.306Z,46.53
2019-05-02T18:49:12.334Z,45.33
2019-05-02T18:54:38.671Z,47.00
2019-05-02T19:00:02.069Z,45.30
2019-05-02T19:05:28.584Z,47.43
2019-05-02T19:11:05.294Z,41.80
2019-05-02T19:16:19.261Z,41.00
2019-05-02T19:21:44.641Z,43.97
2019-05-02T19:27:12.704Z,35.87
2019-05-02T19:32:36.162Z,42.20
2019-05-02T19:38:02.151Z,39.97
2019-05-02T19:43:25.608Z,41.70
2019-05-02T19:48:50.019Z,41.10
2019-05-02T19:54:15.858Z,38.70
2019-05-02T19:59:40.427Z,49.00
2019-05-02T20:05:04.540Z,37.43
2019-05-02T20:10:29.255Z,37.27
2019-05-02T20:16:04.482Z,43.13
2019-05-02T20:21:35.289Z,38.00
2019-05-02T20:26:59.168Z,39.90
2019-05-02T20:32:23.446Z,40.07
2019-05-02T20:37:47.105Z,43.27
2019-05-02T20:43:12.156Z,38.03
2019-05-02T20:48:36.875Z,38.03
2019-05-02T20:54:02.035Z,27.40
2019-05-02T20:59:26.507Z,19.97
2019-05-02T21:04:52.154Z,19.87
2019-05-02T21:10:27.873Z,32.07
2019-05-02T21:15:52.525Z,27.30
2019-05-02T21:21:18.598Z,23.97
2019-05-02T21:26:43.108Z,25.67
2019-05-02T21:32:07.087Z,23.67
2019-05-02T21:37:31.981Z,24.97
2019-05-02T21:42:55.811Z,26.33
2019-05-02T21:48:21.947Z,26.50
2019-05-02T21:53:56.070Z,27.43
2019-05-02T21:59:19.075Z,32.67
2019-05-02T22:04:43.129Z,28.33
2019-05-02T22:10:08.180Z,24.13
2019-05-02T22:15:33.232Z,12.00
2019-05-02T22:20:58.121Z,11.70
2019-05-02T22:26:22.107Z,8.77
2019-05-02T22:31:46.500Z,8.83
2019-05-02T22:37:12.524Z,12.50
2019-05-02T22:42:37.445Z,13.73
2019-05-02T22:48:02.594Z,12.07
2019-05-02T22:53:27.568Z,10.87
2019-05-02T22:58:51.971Z,12.43
2019-05-02T23:04:18.101Z,14.00
2019-05-02T23:09:43.676Z,11.10
2019-05-02T23:15:09.469Z,9.70
2019-05-02T23:20:34.300Z,11.50
2019-05-02T23:26:13.788Z,13.27
2019-05-02T23:31:37.914Z,9.63
2019-05-02T23:37:02.599Z,11.60
2019-05-02T23:42:26.571Z,10.10
2019-05-02T23:47:52.739Z,11.10
2019-05-02T23:53:17.626Z,10.93
2019-05-02T23:58:42.648Z,11.83
